sensor_id;sensor_type;location;lat;lon;timestamp;P1;durP1;ratioP1;P2;durP2;ratioP2
59388;SDS011;51830;45.202;19.720;2023-08-06T00:02:03;15.10;;;4.47;;
59388;SDS011;51830;45.202;19.720;2023-08-06T00:04:29;15.20;;;4.60;;
59388;SDS011;51830;45.202;19.720;2023-08-06T00:06:55;16.13;;;5.40;;
59388;SDS011;51830;45.202;19.720;2023-08-06T00:09:21;14.63;;;4.90;;
59388;SDS011;51830;45.202;19.720;2023-08-06T00:11:47;14.90;;;4.68;;
59388;SDS011;51830;45.202;19.720;2023-08-06T00:14:13;16.27;;;4.90;;
59388;SDS011;51830;45.202;19.720;2023-08-06T00:16:43;16.50;;;5.22;;
59388;SDS011;51830;45.202;19.720;2023-08-06T00:19:09;15.60;;;4.90;;
59388;SDS011;51830;45.202;19.720;2023-08-06T00:21:36;15.52;;;4.85;;
59388;SDS011;51830;45.202;19.720;2023-08-06T00:24:02;14.98;;;4.65;;
59388;SDS011;51830;45.202;19.720;2023-08-06T00:26:29;13.90;;;5.03;;
59388;SDS011;51830;45.202;19.720;2023-08-06T00:28:55;16.02;;;5.07;;
59388;SDS011;51830;45.202;19.720;2023-08-06T00:31:21;15.55;;;4.85;;
59388;SDS011;51830;45.202;19.720;2023-08-06T00:33:47;16.15;;;5.25;;
59388;SDS011;51830;45.202;19.720;2023-08-06T00:36:13;15.60;;;5.75;;
59388;SDS011;51830;45.202;19.720;2023-08-06T00:38:39;16.13;;;5.57;;
59388;SDS011;51830;45.202;19.720;2023-08-06T00:41:05;16.75;;;5.70;;
59388;SDS011;51830;45.202;19.720;2023-08-06T00:43:32;18.90;;;5.47;;
59388;SDS011;51830;45.202;19.720;2023-08-06T00:45:58;20.20;;;5.57;;
59388;SDS011;51830;45.202;19.720;2023-08-06T00:48:24;15.75;;;5.65;;
59388;SDS011;51830;45.202;19.720;2023-08-06T00:50:50;15.23;;;5.45;;
59388;SDS011;51830;45.202;19.720;2023-08-06T00:53:16;17.25;;;6.00;;
59388;SDS011;51830;45.202;19.720;2023-08-06T00:55:43;16.52;;;5.30;;
59388;SDS011;51830;45.202;19.720;2023-08-06T00:58:10;16.27;;;5.07;;
59388;SDS011;51830;45.202;19.720;2023-08-06T01:00:36;12.35;;;3.70;;
59388;SDS011;51830;45.202;19.720;2023-08-06T01:03:03;14.30;;;4.25;;
59388;SDS011;51830;45.202;19.720;2023-08-06T01:05:29;14.65;;;4.70;;
59388;SDS011;51830;45.202;19.720;2023-08-06T01:16:03;14.57;;;4.25;;
59388;SDS011;51830;45.202;19.720;2023-08-06T01:18:30;15.70;;;5.15;;
59388;SDS011;51830;45.202;19.720;2023-08-06T01:20:57;19.13;;;5.40;;
59388;SDS011;51830;45.202;19.720;2023-08-06T01:23:23;15.93;;;5.32;;
59388;SDS011;51830;45.202;19.720;2023-08-06T01:25:54;18.08;;;5.93;;
59388;SDS011;51830;45.202;19.720;2023-08-06T01:28:31;18.25;;;5.95;;
59388;SDS011;51830;45.202;19.720;2023-08-06T01:30:59;16.52;;;5.65;;
59388;SDS011;51830;45.202;19.720;2023-08-06T01:33:28;19.23;;;5.88;;
59388;SDS011;51830;45.202;19.720;2023-08-06T01:35:54;20.40;;;6.07;;
59388;SDS011;51830;45.202;19.720;2023-08-06T01:38:21;16.58;;;5.95;;
59388;SDS011;51830;45.202;19.720;2023-08-06T01:40:47;18.70;;;6.35;;
59388;SDS011;51830;45.202;19.720;2023-08-06T01:43:13;16.83;;;6.07;;
59388;SDS011;51830;45.202;19.720;2023-08-06T01:45:39;20.73;;;7.22;;
59388;SDS011;51830;45.202;19.720;2023-08-06T01:48:05;22.52;;;8.15;;
59388;SDS011;51830;45.202;19.720;2023-08-06T01:50:31;19.10;;;7.15;;
59388;SDS011;51830;45.202;19.720;2023-08-06T01:52:57;17.80;;;7.03;;
59388;SDS011;51830;45.202;19.720;2023-08-06T01:55:24;19.90;;;6.53;;
59388;SDS011;51830;45.202;19.720;2023-08-06T01:57:50;18.27;;;6.03;;
59388;SDS011;51830;45.202;19.720;2023-08-06T02:00:16;18.83;;;5.93;;
59388;SDS011;51830;45.202;19.720;2023-08-06T02:02:42;16.60;;;5.47;;
59388;SDS011;51830;45.202;19.720;2023-08-06T02:05:08;17.13;;;5.75;;
59388;SDS011;51830;45.202;19.720;2023-08-06T02:07:34;16.40;;;5.65;;
59388;SDS011;51830;45.202;19.720;2023-08-06T02:10:00;18.70;;;5.88;;
59388;SDS011;51830;45.202;19.720;2023-08-06T02:12:26;20.65;;;5.70;;
59388;SDS011;51830;45.202;19.720;2023-08-06T02:14:53;17.52;;;6.05;;
59388;SDS011;51830;45.202;19.720;2023-08-06T02:17:19;17.45;;;6.18;;
59388;SDS011;51830;45.202;19.720;2023-08-06T02:19:45;18.73;;;6.28;;
59388;SDS011;51830;45.202;19.720;2023-08-06T02:22:11;17.40;;;6.28;;
59388;SDS011;51830;45.202;19.720;2023-08-06T02:24:37;18.58;;;6.60;;
59388;SDS011;51830;45.202;19.720;2023-08-06T02:27:03;22.90;;;7.25;;
59388;SDS011;51830;45.202;19.720;2023-08-06T02:29:29;17.92;;;6.25;;
59388;SDS011;51830;45.202;19.720;2023-08-06T02:31:55;18.73;;;6.18;;
59388;SDS011;51830;45.202;19.720;2023-08-06T02:34:22;18.90;;;6.65;;
59388;SDS011;51830;45.202;19.720;2023-08-06T02:36:48;18.05;;;6.10;;
59388;SDS011;51830;45.202;19.720;2023-08-06T02:39:14;22.17;;;6.97;;
59388;SDS011;51830;45.202;19.720;2023-08-06T02:41:40;18.85;;;6.97;;
59388;SDS011;51830;45.202;19.720;2023-08-06T02:44:06;18.95;;;6.50;;
59388;SDS011;51830;45.202;19.720;2023-08-06T02:46:32;17.17;;;5.85;;
59388;SDS011;51830;45.202;19.720;2023-08-06T02:48:58;18.45;;;6.32;;
59388;SDS011;51830;45.202;19.720;2023-08-06T02:51:24;18.95;;;6.90;;
59388;SDS011;51830;45.202;19.720;2023-08-06T02:53:50;19.70;;;6.85;;
59388;SDS011;51830;45.202;19.720;2023-08-06T02:56:16;18.25;;;6.80;;
59388;SDS011;51830;45.202;19.720;2023-08-06T02:58:43;19.77;;;7.00;;
59388;SDS011;51830;45.202;19.720;2023-08-06T03:01:09;22.52;;;7.25;;
59388;SDS011;51830;45.202;19.720;2023-08-06T03:03:35;18.67;;;6.68;;
59388;SDS011;51830;45.202;19.720;2023-08-06T03:06:01;18.40;;;6.47;;
59388;SDS011;51830;45.202;19.720;2023-08-06T03:08:28;18.48;;;6.80;;
59388;SDS011;51830;45.202;19.720;2023-08-06T03:10:54;22.10;;;7.50;;
59388;SDS011;51830;45.202;19.720;2023-08-06T03:13:20;19.63;;;6.35;;
59388;SDS011;51830;45.202;19.720;2023-08-06T03:15:53;23.10;;;6.38;;
59388;SDS011;51830;45.202;19.720;2023-08-06T03:18:19;21.15;;;6.97;;
59388;SDS011;51830;45.202;19.720;2023-08-06T03:20:46;21.35;;;7.80;;
59388;SDS011;51830;45.202;19.720;2023-08-06T03:23:12;21.70;;;7.38;;
59388;SDS011;51830;45.202;19.720;2023-08-06T03:25:38;21.75;;;7.40;;
59388;SDS011;51830;45.202;19.720;2023-08-06T03:28:04;19.00;;;6.95;;
59388;SDS011;51830;45.202;19.720;2023-08-06T03:30:30;20.58;;;7.72;;
59388;SDS011;51830;45.202;19.720;2023-08-06T03:32:57;21.60;;;7.82;;
59388;SDS011;51830;45.202;19.720;2023-08-06T03:35:23;20.83;;;7.35;;
59388;SDS011;51830;45.202;19.720;2023-08-06T03:37:49;20.20;;;7.28;;
59388;SDS011;51830;45.202;19.720;2023-08-06T03:40:15;21.05;;;7.40;;
59388;SDS011;51830;45.202;19.720;2023-08-06T03:42:41;19.05;;;7.40;;
59388;SDS011;51830;45.202;19.720;2023-08-06T03:45:07;19.83;;;7.75;;
59388;SDS011;51830;45.202;19.720;2023-08-06T03:47:34;22.85;;;8.73;;
59388;SDS011;51830;45.202;19.720;2023-08-06T03:50:00;22.65;;;8.00;;
59388;SDS011;51830;45.202;19.720;2023-08-06T03:52:26;23.90;;;9.63;;
59388;SDS011;51830;45.202;19.720;2023-08-06T03:54:52;20.30;;;7.63;;
59388;SDS011;51830;45.202;19.720;2023-08-06T03:57:18;19.85;;;7.80;;
59388;SDS011;51830;45.202;19.720;2023-08-06T03:59:45;20.40;;;7.88;;
59388;SDS011;51830;45.202;19.720;2023-08-06T04:02:11;23.90;;;7.97;;
59388;SDS011;51830;45.202;19.720;2023-08-06T04:04:37;23.15;;;8.40;;
59388;SDS011;51830;45.202;19.720;2023-08-06T04:07:03;20.63;;;7.60;;
59388;SDS011;51830;45.202;19.720;2023-08-06T04:09:30;22.77;;;8.25;;
59388;SDS011;51830;45.202;19.720;2023-08-06T04:11:56;22.33;;;7.93;;
59388;SDS011;51830;45.202;19.720;2023-08-06T04:14:23;19.25;;;6.95;;
59388;SDS011;51830;45.202;19.720;2023-08-06T04:16:49;25.38;;;8.15;;
59388;SDS011;51830;45.202;19.720;2023-08-06T04:19:15;20.63;;;7.53;;
59388;SDS011;51830;45.202;19.720;2023-08-06T04:33:43;24.45;;;8.88;;
59388;SDS011;51830;45.202;19.720;2023-08-06T04:36:09;19.63;;;7.78;;
59388;SDS011;51830;45.202;19.720;2023-08-06T04:38:35;22.48;;;8.13;;
59388;SDS011;51830;45.202;19.720;2023-08-06T04:41:02;21.92;;;8.27;;
59388;SDS011;51830;45.202;19.720;2023-08-06T04:43:28;23.60;;;8.75;;
59388;SDS011;51830;45.202;19.720;2023-08-06T04:45:54;21.30;;;8.85;;
59388;SDS011;51830;45.202;19.720;2023-08-06T04:48:21;22.08;;;8.80;;
59388;SDS011;51830;45.202;19.720;2023-08-06T04:50:48;23.10;;;8.30;;
59388;SDS011;51830;45.202;19.720;2023-08-06T04:53:15;25.05;;;10.32;;
59388;SDS011;51830;45.202;19.720;2023-08-06T04:55:41;24.27;;;9.90;;
59388;SDS011;51830;45.202;19.720;2023-08-06T04:58:09;26.55;;;10.02;;
59388;SDS011;51830;45.202;19.720;2023-08-06T05:00:35;26.13;;;11.75;;
59388;SDS011;51830;45.202;19.720;2023-08-06T05:03:01;26.85;;;11.95;;
59388;SDS011;51830;45.202;19.720;2023-08-06T05:05:28;27.33;;;11.55;;
59388;SDS011;51830;45.202;19.720;2023-08-06T05:07:54;22.70;;;9.45;;
59388;SDS011;51830;45.202;19.720;2023-08-06T05:10:21;18.85;;;7.32;;
59388;SDS011;51830;45.202;19.720;2023-08-06T05:12:47;21.75;;;8.30;;
59388;SDS011;51830;45.202;19.720;2023-08-06T05:15:13;19.17;;;7.95;;
59388;SDS011;51830;45.202;19.720;2023-08-06T05:17:39;21.63;;;7.65;;
59388;SDS011;51830;45.202;19.720;2023-08-06T05:20:06;20.55;;;6.88;;
59388;SDS011;51830;45.202;19.720;2023-08-06T05:22:32;18.55;;;6.63;;
59388;SDS011;51830;45.202;19.720;2023-08-06T05:24:58;18.45;;;5.93;;
59388;SDS011;51830;45.202;19.720;2023-08-06T05:27:24;19.80;;;6.85;;
59388;SDS011;51830;45.202;19.720;2023-08-06T05:29:50;19.40;;;6.75;;
59388;SDS011;51830;45.202;19.720;2023-08-06T05:32:21;20.65;;;6.90;;
59388;SDS011;51830;45.202;19.720;2023-08-06T05:34:47;20.25;;;7.60;;
59388;SDS011;51830;45.202;19.720;2023-08-06T05:37:13;19.58;;;7.15;;
59388;SDS011;51830;45.202;19.720;2023-08-06T05:39:40;19.42;;;7.00;;
59388;SDS011;51830;45.202;19.720;2023-08-06T05:42:06;20.10;;;7.35;;
59388;SDS011;51830;45.202;19.720;2023-08-06T05:44:32;20.52;;;7.55;;
59388;SDS011;51830;45.202;19.720;2023-08-06T05:46:58;18.48;;;7.45;;
59388;SDS011;51830;45.202;19.720;2023-08-06T05:49:24;18.83;;;7.63;;
59388;SDS011;51830;45.202;19.720;2023-08-06T05:51:50;19.38;;;6.90;;
59388;SDS011;51830;45.202;19.720;2023-08-06T05:54:18;20.17;;;6.75;;
59388;SDS011;51830;45.202;19.720;2023-08-06T05:56:45;18.73;;;6.60;;
59388;SDS011;51830;45.202;19.720;2023-08-06T05:59:11;18.48;;;6.55;;
59388;SDS011;51830;45.202;19.720;2023-08-06T06:01:37;17.95;;;6.30;;
59388;SDS011;51830;45.202;19.720;2023-08-06T06:04:03;17.02;;;6.25;;
59388;SDS011;51830;45.202;19.720;2023-08-06T06:06:29;16.60;;;5.82;;
59388;SDS011;51830;45.202;19.720;2023-08-06T06:08:55;16.17;;;5.35;;
59388;SDS011;51830;45.202;19.720;2023-08-06T06:11:21;17.85;;;6.40;;
59388;SDS011;51830;45.202;19.720;2023-08-06T06:13:50;17.67;;;5.70;;
59388;SDS011;51830;45.202;19.720;2023-08-06T06:16:17;17.98;;;5.97;;
59388;SDS011;51830;45.202;19.720;2023-08-06T06:18:43;17.50;;;5.65;;
59388;SDS011;51830;45.202;19.720;2023-08-06T06:21:09;15.88;;;5.85;;
59388;SDS011;51830;45.202;19.720;2023-08-06T06:23:36;16.83;;;5.68;;
59388;SDS011;51830;45.202;19.720;2023-08-06T06:26:02;24.80;;;5.85;;
59388;SDS011;51830;45.202;19.720;2023-08-06T06:28:28;15.13;;;5.35;;
59388;SDS011;51830;45.202;19.720;2023-08-06T06:30:59;16.95;;;5.22;;
59388;SDS011;51830;45.202;19.720;2023-08-06T06:33:25;17.25;;;5.25;;
59388;SDS011;51830;45.202;19.720;2023-08-06T06:35:52;17.08;;;4.90;;
59388;SDS011;51830;45.202;19.720;2023-08-06T06:38:18;14.20;;;4.43;;
59388;SDS011;51830;45.202;19.720;2023-08-06T06:40:49;12.20;;;3.70;;
59388;SDS011;51830;45.202;19.720;2023-08-06T06:43:19;15.95;;;4.20;;
59388;SDS011;51830;45.202;19.720;2023-08-06T06:45:45;13.30;;;3.70;;
59388;SDS011;51830;45.202;19.720;2023-08-06T06:48:11;13.40;;;4.03;;
59388;SDS011;51830;45.202;19.720;2023-08-06T06:50:37;16.00;;;4.40;;
59388;SDS011;51830;45.202;19.720;2023-08-06T06:53:04;13.60;;;3.65;;
59388;SDS011;51830;45.202;19.720;2023-08-06T06:55:30;12.73;;;3.47;;
59388;SDS011;51830;45.202;19.720;2023-08-06T06:57:56;11.90;;;3.45;;
59388;SDS011;51830;45.202;19.720;2023-08-06T07:00:22;9.52;;;2.67;;
59388;SDS011;51830;45.202;19.720;2023-08-06T07:02:48;9.05;;;2.67;;
59388;SDS011;51830;45.202;19.720;2023-08-06T07:05:15;10.02;;;2.65;;
59388;SDS011;51830;45.202;19.720;2023-08-06T07:07:41;9.48;;;2.60;;
59388;SDS011;51830;45.202;19.720;2023-08-06T07:10:07;9.63;;;2.13;;
59388;SDS011;51830;45.202;19.720;2023-08-06T07:12:33;9.88;;;2.55;;
59388;SDS011;51830;45.202;19.720;2023-08-06T07:15:02;8.80;;;2.40;;
59388;SDS011;51830;45.202;19.720;2023-08-06T07:17:28;6.55;;;2.17;;
59388;SDS011;51830;45.202;19.720;2023-08-06T07:19:54;7.70;;;2.40;;
59388;SDS011;51830;45.202;19.720;2023-08-06T07:22:21;4.85;;;1.95;;
59388;SDS011;51830;45.202;19.720;2023-08-06T07:24:47;9.52;;;2.72;;
59388;SDS011;51830;45.202;19.720;2023-08-06T07:27:13;9.88;;;2.63;;
59388;SDS011;51830;45.202;19.720;2023-08-06T07:29:39;7.25;;;2.15;;
59388;SDS011;51830;45.202;19.720;2023-08-06T07:32:06;7.70;;;2.38;;
59388;SDS011;51830;45.202;19.720;2023-08-06T07:34:32;11.10;;;2.53;;
59388;SDS011;51830;45.202;19.720;2023-08-06T07:36:58;9.10;;;2.35;;
59388;SDS011;51830;45.202;19.720;2023-08-06T07:39:24;7.97;;;2.45;;
59388;SDS011;51830;45.202;19.720;2023-08-06T07:41:53;7.45;;;2.20;;
59388;SDS011;51830;45.202;19.720;2023-08-06T07:44:19;10.95;;;2.50;;
59388;SDS011;51830;45.202;19.720;2023-08-06T07:46:45;6.63;;;2.17;;
59388;SDS011;51830;45.202;19.720;2023-08-06T07:49:11;7.18;;;2.30;;
59388;SDS011;51830;45.202;19.720;2023-08-06T07:51:38;9.38;;;2.40;;
59388;SDS011;51830;45.202;19.720;2023-08-06T07:54:04;6.20;;;1.92;;
59388;SDS011;51830;45.202;19.720;2023-08-06T07:56:30;7.72;;;2.13;;
59388;SDS011;51830;45.202;19.720;2023-08-06T07:58:57;5.72;;;2.03;;
59388;SDS011;51830;45.202;19.720;2023-08-06T08:01:23;8.30;;;2.00;;
59388;SDS011;51830;45.202;19.720;2023-08-06T08:03:49;6.47;;;1.88;;
59388;SDS011;51830;45.202;19.720;2023-08-06T08:06:16;4.47;;;1.80;;
59388;SDS011;51830;45.202;19.720;2023-08-06T08:08:42;8.85;;;2.35;;
59388;SDS011;51830;45.202;19.720;2023-08-06T08:11:08;8.20;;;2.22;;
59388;SDS011;51830;45.202;19.720;2023-08-06T08:13:35;3.70;;;1.65;;
59388;SDS011;51830;45.202;19.720;2023-08-06T08:16:01;6.97;;;1.80;;
59388;SDS011;51830;45.202;19.720;2023-08-06T08:18:27;6.45;;;1.77;;
59388;SDS011;51830;45.202;19.720;2023-08-06T08:20:53;4.55;;;1.70;;
59388;SDS011;51830;45.202;19.720;2023-08-06T08:23:19;4.72;;;1.70;;
59388;SDS011;51830;45.202;19.720;2023-08-06T08:25:45;7.57;;;2.17;;
59388;SDS011;51830;45.202;19.720;2023-08-06T08:28:11;8.50;;;2.15;;
59388;SDS011;51830;45.202;19.720;2023-08-06T08:30:40;4.25;;;1.85;;
59388;SDS011;51830;45.202;19.720;2023-08-06T08:33:06;5.78;;;2.00;;
59388;SDS011;51830;45.202;19.720;2023-08-06T08:35:33;8.13;;;2.40;;
59388;SDS011;51830;45.202;19.720;2023-08-06T08:37:59;6.25;;;2.00;;
59388;SDS011;51830;45.202;19.720;2023-08-06T08:40:27;8.55;;;2.17;;
59388;SDS011;51830;45.202;19.720;2023-08-06T08:42:55;8.00;;;2.10;;
59388;SDS011;51830;45.202;19.720;2023-08-06T08:45:22;9.02;;;2.15;;
59388;SDS011;51830;45.202;19.720;2023-08-06T08:47:51;6.90;;;2.10;;
59388;SDS011;51830;45.202;19.720;2023-08-06T08:50:18;4.30;;;1.85;;
59388;SDS011;51830;45.202;19.720;2023-08-06T08:52:44;5.55;;;1.70;;
59388;SDS011;51830;45.202;19.720;2023-08-06T08:55:12;4.40;;;1.73;;
59388;SDS011;51830;45.202;19.720;2023-08-06T08:57:40;5.05;;;1.77;;
59388;SDS011;51830;45.202;19.720;2023-08-06T09:00:06;8.25;;;2.00;;
59388;SDS011;51830;45.202;19.720;2023-08-06T09:02:32;3.13;;;1.48;;
59388;SDS011;51830;45.202;19.720;2023-08-06T09:04:59;5.45;;;1.85;;
59388;SDS011;51830;45.202;19.720;2023-08-06T09:07:29;4.68;;;1.77;;
59388;SDS011;51830;45.202;19.720;2023-08-06T09:09:58;4.90;;;1.73;;
59388;SDS011;51830;45.202;19.720;2023-08-06T09:12:25;5.68;;;2.00;;
59388;SDS011;51830;45.202;19.720;2023-08-06T09:14:52;7.07;;;2.00;;
59388;SDS011;51830;45.202;19.720;2023-08-06T09:17:18;5.93;;;1.95;;
59388;SDS011;51830;45.202;19.720;2023-08-06T09:19:45;7.85;;;1.80;;
59388;SDS011;51830;45.202;19.720;2023-08-06T09:22:13;11.93;;;2.20;;
59388;SDS011;51830;45.202;19.720;2023-08-06T09:24:40;5.97;;;2.17;;
59388;SDS011;51830;45.202;19.720;2023-08-06T09:27:10;6.28;;;2.10;;
59388;SDS011;51830;45.202;19.720;2023-08-06T09:29:42;4.43;;;1.75;;
59388;SDS011;51830;45.202;19.720;2023-08-06T09:32:08;4.70;;;1.83;;
59388;SDS011;51830;45.202;19.720;2023-08-06T09:34:34;5.43;;;1.98;;
59388;SDS011;51830;45.202;19.720;2023-08-06T09:37:00;8.65;;;2.00;;
59388;SDS011;51830;45.202;19.720;2023-08-06T09:39:27;6.32;;;1.80;;
59388;SDS011;51830;45.202;19.720;2023-08-06T09:41:57;4.30;;;1.75;;
59388;SDS011;51830;45.202;19.720;2023-08-06T09:44:23;5.03;;;1.90;;
59388;SDS011;51830;45.202;19.720;2023-08-06T09:46:57;7.43;;;1.90;;
59388;SDS011;51830;45.202;19.720;2023-08-06T09:49:27;4.25;;;1.63;;
59388;SDS011;51830;45.202;19.720;2023-08-06T09:51:54;3.67;;;1.55;;
59388;SDS011;51830;45.202;19.720;2023-08-06T09:54:25;6.10;;;1.98;;
59388;SDS011;51830;45.202;19.720;2023-08-06T09:56:52;9.00;;;2.40;;
59388;SDS011;51830;45.202;19.720;2023-08-06T09:59:18;7.82;;;2.08;;
59388;SDS011;51830;45.202;19.720;2023-08-06T10:01:45;9.60;;;2.40;;
59388;SDS011;51830;45.202;19.720;2023-08-06T10:04:12;7.63;;;2.10;;
59388;SDS011;51830;45.202;19.720;2023-08-06T10:06:41;4.57;;;1.80;;
59388;SDS011;51830;45.202;19.720;2023-08-06T10:09:07;4.65;;;1.77;;
59388;SDS011;51830;45.202;19.720;2023-08-06T10:11:35;6.80;;;2.00;;
59388;SDS011;51830;45.202;19.720;2023-08-06T10:14:06;8.30;;;1.90;;
59388;SDS011;51830;45.202;19.720;2023-08-06T10:16:34;3.38;;;1.70;;
59388;SDS011;51830;45.202;19.720;2023-08-06T10:19:01;3.67;;;1.58;;
59388;SDS011;51830;45.202;19.720;2023-08-06T10:21:27;2.67;;;1.50;;
59388;SDS011;51830;45.202;19.720;2023-08-06T10:23:55;4.80;;;1.70;;
59388;SDS011;51830;45.202;19.720;2023-08-06T10:26:25;4.75;;;1.67;;
59388;SDS011;51830;45.202;19.720;2023-08-06T10:28:51;4.45;;;1.50;;
59388;SDS011;51830;45.202;19.720;2023-08-06T10:31:18;6.28;;;1.83;;
59388;SDS011;51830;45.202;19.720;2023-08-06T10:33:44;4.95;;;1.73;;
59388;SDS011;51830;45.202;19.720;2023-08-06T10:36:11;5.93;;;1.92;;
59388;SDS011;51830;45.202;19.720;2023-08-06T10:38:47;5.22;;;1.42;;
59388;SDS011;51830;45.202;19.720;2023-08-06T10:41:29;4.88;;;1.65;;
59388;SDS011;51830;45.202;19.720;2023-08-06T10:44:16;6.75;;;1.92;;
59388;SDS011;51830;45.202;19.720;2023-08-06T10:46:41;6.07;;;1.90;;
59388;SDS011;51830;45.202;19.720;2023-08-06T10:49:07;6.72;;;1.95;;
59388;SDS011;51830;45.202;19.720;2023-08-06T10:51:34;6.45;;;2.00;;
59388;SDS011;51830;45.202;19.720;2023-08-06T10:54:00;8.02;;;1.95;;
59388;SDS011;51830;45.202;19.720;2023-08-06T10:56:26;5.38;;;1.95;;
59388;SDS011;51830;45.202;19.720;2023-08-06T10:58:55;4.72;;;1.80;;
59388;SDS011;51830;45.202;19.720;2023-08-06T11:01:22;8.38;;;1.92;;
59388;SDS011;51830;45.202;19.720;2023-08-06T11:03:49;6.38;;;1.80;;
59388;SDS011;51830;45.202;19.720;2023-08-06T11:06:19;4.82;;;1.63;;
59388;SDS011;51830;45.202;19.720;2023-08-06T11:08:53;6.30;;;1.90;;
59388;SDS011;51830;45.202;19.720;2023-08-06T11:11:19;6.30;;;2.00;;
59388;SDS011;51830;45.202;19.720;2023-08-06T11:13:46;2.75;;;1.50;;
59388;SDS011;51830;45.202;19.720;2023-08-06T11:16:20;7.45;;;2.03;;
59388;SDS011;51830;45.202;19.720;2023-08-06T11:18:46;3.88;;;1.48;;
59388;SDS011;51830;45.202;19.720;2023-08-06T11:21:13;2.38;;;1.33;;
59388;SDS011;51830;45.202;19.720;2023-08-06T11:23:40;4.88;;;1.20;;
59388;SDS011;51830;45.202;19.720;2023-08-06T11:26:06;5.32;;;1.73;;
59388;SDS011;51830;45.202;19.720;2023-08-06T11:28:33;3.40;;;1.45;;
59388;SDS011;51830;45.202;19.720;2023-08-06T11:30:59;9.82;;;2.30;;
59388;SDS011;51830;45.202;19.720;2023-08-06T11:33:27;5.78;;;1.80;;
59388;SDS011;51830;45.202;19.720;2023-08-06T11:35:54;4.60;;;1.58;;
59388;SDS011;51830;45.202;19.720;2023-08-06T11:38:21;2.92;;;1.27;;
59388;SDS011;51830;45.202;19.720;2023-08-06T11:40:48;7.38;;;1.80;;
59388;SDS011;51830;45.202;19.720;2023-08-06T11:43:14;1.20;;;1.10;;
59388;SDS011;51830;45.202;19.720;2023-08-06T11:45:40;4.18;;;1.45;;
59388;SDS011;51830;45.202;19.720;2023-08-06T11:48:06;4.05;;;1.38;;
59388;SDS011;51830;45.202;19.720;2023-08-06T11:50:36;4.40;;;1.40;;
59388;SDS011;51830;45.202;19.720;2023-08-06T11:53:05;4.03;;;1.60;;
59388;SDS011;51830;45.202;19.720;2023-08-06T11:55:31;1.10;;;1.00;;
59388;SDS011;51830;45.202;19.720;2023-08-06T11:57:58;6.07;;;1.75;;
59388;SDS011;51830;45.202;19.720;2023-08-06T12:00:25;3.35;;;1.20;;
59388;SDS011;51830;45.202;19.720;2023-08-06T12:02:51;2.88;;;1.10;;
59388;SDS011;51830;45.202;19.720;2023-08-06T12:05:20;5.63;;;1.55;;
59388;SDS011;51830;45.202;19.720;2023-08-06T12:07:55;1.85;;;1.10;;
59388;SDS011;51830;45.202;19.720;2023-08-06T12:10:22;3.00;;;1.20;;
59388;SDS011;51830;45.202;19.720;2023-08-06T12:12:48;2.85;;;1.02;;
59388;SDS011;51830;45.202;19.720;2023-08-06T12:15:15;3.58;;;1.23;;
59388;SDS011;51830;45.202;19.720;2023-08-06T12:17:41;2.72;;;1.10;;
59388;SDS011;51830;45.202;19.720;2023-08-06T12:20:08;6.50;;;1.55;;
59388;SDS011;51830;45.202;19.720;2023-08-06T12:22:35;0.98;;;0.73;;
59388;SDS011;51830;45.202;19.720;2023-08-06T12:25:03;1.17;;;0.93;;
59388;SDS011;51830;45.202;19.720;2023-08-06T12:27:33;2.78;;;0.93;;
59388;SDS011;51830;45.202;19.720;2023-08-06T12:29:59;1.00;;;0.68;;
59388;SDS011;51830;45.202;19.720;2023-08-06T12:32:26;2.97;;;0.70;;
59388;SDS011;51830;45.202;19.720;2023-08-06T12:34:52;2.20;;;1.13;;
59388;SDS011;51830;45.202;19.720;2023-08-06T12:37:18;1.45;;;0.60;;
59388;SDS011;51830;45.202;19.720;2023-08-06T12:39:44;0.60;;;0.60;;
59388;SDS011;51830;45.202;19.720;2023-08-06T12:42:11;0.50;;;0.50;;
59388;SDS011;51830;45.202;19.720;2023-08-06T12:44:37;1.00;;;0.90;;
59388;SDS011;51830;45.202;19.720;2023-08-06T12:47:03;1.95;;;0.70;;
59388;SDS011;51830;45.202;19.720;2023-08-06T12:49:29;1.60;;;0.80;;
59388;SDS011;51830;45.202;19.720;2023-08-06T12:51:56;2.10;;;0.73;;
59388;SDS011;51830;45.202;19.720;2023-08-06T12:54:25;1.27;;;0.82;;
59388;SDS011;51830;45.202;19.720;2023-08-06T12:56:51;0.60;;;0.60;;
59388;SDS011;51830;45.202;19.720;2023-08-06T12:59:18;1.83;;;0.77;;
59388;SDS011;51830;45.202;19.720;2023-08-06T13:01:44;2.20;;;0.90;;
59388;SDS011;51830;45.202;19.720;2023-08-06T13:04:10;1.98;;;1.05;;
59388;SDS011;51830;45.202;19.720;2023-08-06T13:06:37;0.75;;;0.65;;
59388;SDS011;51830;45.202;19.720;2023-08-06T13:09:07;1.42;;;0.65;;
59388;SDS011;51830;45.202;19.720;2023-08-06T13:11:34;1.75;;;0.77;;
59388;SDS011;51830;45.202;19.720;2023-08-06T13:14:04;4.00;;;0.90;;
59388;SDS011;51830;45.202;19.720;2023-08-06T13:16:31;2.25;;;1.00;;
59388;SDS011;51830;45.202;19.720;2023-08-06T13:18:57;0.95;;;0.85;;
59388;SDS011;51830;45.202;19.720;2023-08-06T13:21:23;1.92;;;0.88;;
59388;SDS011;51830;45.202;19.720;2023-08-06T13:23:50;2.50;;;1.05;;
59388;SDS011;51830;45.202;19.720;2023-08-06T13:26:17;5.10;;;1.17;;
59388;SDS011;51830;45.202;19.720;2023-08-06T13:28:43;2.78;;;0.90;;
59388;SDS011;51830;45.202;19.720;2023-08-06T13:31:09;3.20;;;1.10;;
59388;SDS011;51830;45.202;19.720;2023-08-06T13:33:36;1.20;;;0.75;;
59388;SDS011;51830;45.202;19.720;2023-08-06T13:36:02;0.88;;;0.77;;
59388;SDS011;51830;45.202;19.720;2023-08-06T13:38:28;3.45;;;0.88;;
59388;SDS011;51830;45.202;19.720;2023-08-06T13:40:54;3.97;;;1.20;;
59388;SDS011;51830;45.202;19.720;2023-08-06T13:43:20;3.28;;;1.25;;
59388;SDS011;51830;45.202;19.720;2023-08-06T13:45:47;1.00;;;0.73;;
59388;SDS011;51830;45.202;19.720;2023-08-06T13:48:13;3.40;;;1.30;;
59388;SDS011;51830;45.202;19.720;2023-08-06T13:50:39;2.22;;;0.90;;
59388;SDS011;51830;45.202;19.720;2023-08-06T13:53:05;3.53;;;1.30;;
59388;SDS011;51830;45.202;19.720;2023-08-06T13:55:31;3.53;;;1.10;;
59388;SDS011;51830;45.202;19.720;2023-08-06T13:57:58;3.55;;;1.15;;
59388;SDS011;51830;45.202;19.720;2023-08-06T14:00:24;3.50;;;1.40;;
59388;SDS011;51830;45.202;19.720;2023-08-06T14:02:50;5.47;;;1.27;;
59388;SDS011;51830;45.202;19.720;2023-08-06T14:05:17;2.47;;;0.98;;
59388;SDS011;51830;45.202;19.720;2023-08-06T14:07:43;4.57;;;1.10;;
59388;SDS011;51830;45.202;19.720;2023-08-06T14:10:09;3.17;;;1.20;;
59388;SDS011;51830;45.202;19.720;2023-08-06T14:12:36;2.88;;;1.10;;
59388;SDS011;51830;45.202;19.720;2023-08-06T14:15:02;8.98;;;1.30;;
59388;SDS011;51830;45.202;19.720;2023-08-06T14:17:28;5.18;;;1.40;;
59388;SDS011;51830;45.202;19.720;2023-08-06T14:19:55;3.75;;;1.33;;
59388;SDS011;51830;45.202;19.720;2023-08-06T14:22:22;4.32;;;1.23;;
59388;SDS011;51830;45.202;19.720;2023-08-06T14:24:48;4.38;;;1.63;;
59388;SDS011;51830;45.202;19.720;2023-08-06T14:27:14;3.53;;;1.20;;
59388;SDS011;51830;45.202;19.720;2023-08-06T14:29:40;1.98;;;1.15;;
59388;SDS011;51830;45.202;19.720;2023-08-06T14:32:06;1.98;;;1.08;;
59388;SDS011;51830;45.202;19.720;2023-08-06T14:34:33;2.72;;;1.15;;
59388;SDS011;51830;45.202;19.720;2023-08-06T14:37:00;2.25;;;0.95;;
59388;SDS011;51830;45.202;19.720;2023-08-06T14:39:26;2.15;;;1.10;;
59388;SDS011;51830;45.202;19.720;2023-08-06T14:41:52;4.10;;;1.25;;
59388;SDS011;51830;45.202;19.720;2023-08-06T14:44:18;2.47;;;1.15;;
59388;SDS011;51830;45.202;19.720;2023-08-06T14:46:44;5.75;;;1.10;;